Address 0xe6f7e0add15c665f5ac2b0eedfd2e8578ef2bf8a 6

 
Ad
Ad
Txn Hash Method
Block
From
To
Value [Txn Fee]
0x8d069b587afba27680f1a898955c09f322ab42e6c5fbba15c28e2bad55ad5d13Execute Meta Tra...191910222021-09-17 3:30:0210 mins ago0xe6f7e0add15c665f5ac2b0eedfd2e8578ef2bf8aOUT 0x89aac1f5ccdd54dd8a09e5c858f19a665e4fa32b0 MATIC0.0214179
0x01295185474e171d4b3953f1ad92bb8045a44c3b3dd5bc9ad419063baf724a01Execute Meta Tra...191908412021-09-17 3:19:3220 mins ago0xe6f7e0add15c665f5ac2b0eedfd2e8578ef2bf8aOUT 0x89aac1f5ccdd54dd8a09e5c858f19a665e4fa32b0 MATIC0.00282798
0x7a5195895562625f57ec6b0e127b4a8bc296f6244a36eca56ca40c2c4e1b2ad9Execute Meta Tra...191906812021-09-17 3:11:5628 mins ago0xe6f7e0add15c665f5ac2b0eedfd2e8578ef2bf8aOUT 0x89aac1f5ccdd54dd8a09e5c858f19a665e4fa32b0 MATIC0.006639177
0x105a06b8e7605cb519da560141fd94f7d1f4eb2a42dbf5c0a541d35ba8c580ecExecute Meta Tra...191903672021-09-17 3:00:0040 mins ago0xe6f7e0add15c665f5ac2b0eedfd2e8578ef2bf8aOUT 0x89aac1f5ccdd54dd8a09e5c858f19a665e4fa32b0 MATIC0.00642537
0xba64a0334a7478af391af6956aeddefede3874b63a394f5bf20811f1a793d034Forward Meta Tx191901332021-09-17 2:48:0452 mins ago0xe6f7e0add15c665f5ac2b0eedfd2e8578ef2bf8aOUT 0x0babda04f62c549a09ef3313fe187f29c099ff3c0 MATIC0.00709272
0x402e2b8d2b6f0549e5d7ef7934642b71fdc7e726be57a143f44c97ca460f7633Execute Meta Tra...191899802021-09-17 2:39:011 hr 1 min ago0xe6f7e0add15c665f5ac2b0eedfd2e8578ef2bf8aOUT 0x89aac1f5ccdd54dd8a09e5c858f19a665e4fa32b0 MATIC0.011137308
0x8e264a51a013969ac55b561a41fe00b4b93fade73571c65cae5583d95c9a0a54Execute Meta Tra...191897862021-09-17 2:32:211 hr 7 mins ago0xe6f7e0add15c665f5ac2b0eedfd2e8578ef2bf8aOUT 0x89aac1f5ccdd54dd8a09e5c858f19a665e4fa32b0 MATIC0.007495425
0x8dc88ba90ccda3e41fbad6ac7335015ca9ee98fda46db40ad61fc6ee7fb61076Execute Meta Tra...191896272021-09-17 2:26:511 hr 13 mins ago0xe6f7e0add15c665f5ac2b0eedfd2e8578ef2bf8aOUT 0x89aac1f5ccdd54dd8a09e5c858f19a665e4fa32b0 MATIC0.005354175
0xe8e91e3e5cc745c8c1a710ac243885f769338355249444c57d1b83a53dc7d16d0x41706c4e191894402021-09-17 2:18:211 hr 21 mins ago0xe6f7e0add15c665f5ac2b0eedfd2e8578ef2bf8aOUT 0x86c80a8aa58e0a4fa09a69624c31ab2a6cad56b80 MATIC0.00326205
0x45b6c1175a7b11cbab5cfca3fb6317f8189575263f5388b86c257590a1cf54e9Execute Meta Tra...191892492021-09-17 2:11:471 hr 28 mins ago0xe6f7e0add15c665f5ac2b0eedfd2e8578ef2bf8aOUT 0x89aac1f5ccdd54dd8a09e5c858f19a665e4fa32b0 MATIC0.00428358
0xe3d1b21f06c1617707b70fb7a681a89db14d8e031557364eb4fa6b65dfd97e36Execute Meta Tra...191891222021-09-17 2:03:211 hr 36 mins ago0xe6f7e0add15c665f5ac2b0eedfd2e8578ef2bf8aOUT 0x89aac1f5ccdd54dd8a09e5c858f19a665e4fa32b0 MATIC0.00214167
0x97d59e2a81e5e989e7133bd0924438b1b7b523bc96534884ba4b221cdb2ffe7e0x41706c4e191885892021-09-17 1:40:291 hr 59 mins ago0xe6f7e0add15c665f5ac2b0eedfd2e8578ef2bf8aOUT 0x86c80a8aa58e0a4fa09a69624c31ab2a6cad56b80 MATIC0.006007422618
0x9f8a9cb94593ff6d1bc442c691aa93de6b4193a1e5fe7d5926b7a8c92907b9ddExecute Meta Tra...191884322021-09-17 1:31:592 hrs 8 mins ago0xe6f7e0add15c665f5ac2b0eedfd2e8578ef2bf8aOUT 0x89aac1f5ccdd54dd8a09e5c858f19a665e4fa32b0 MATIC0.0214155
0xb90a17306f908cb0bcd372c44d0be73bbbef9cc2b5eea9535ff3ccfcf47b63f3Execute Meta Tra...191882612021-09-17 1:24:482 hrs 15 mins ago0xe6f7e0add15c665f5ac2b0eedfd2e8578ef2bf8aOUT 0x89aac1f5ccdd54dd8a09e5c858f19a665e4fa32b0 MATIC0.004496751
0x80e412337c4ef2c4fb36d4386025ace76de402473d1d52880c5e8f86bb55aff6Execute Meta Tra...191881152021-09-17 1:19:482 hrs 20 mins ago0xe6f7e0add15c665f5ac2b0eedfd2e8578ef2bf8aOUT 0x89aac1f5ccdd54dd8a09e5c858f19a665e4fa32b0 MATIC0.001469712
0x9449ee0c0ddf562d667375086816f23364d865d6cc54aad0960fb2ca73531e91Execute Meta Tra...191879092021-09-17 1:10:062 hrs 30 mins ago0xe6f7e0add15c665f5ac2b0eedfd2e8578ef2bf8aOUT 0xa5f1ea7df861952863df2e8d1312f7305dabf2150 MATIC0.00321400707
0xef321021392942df0c0e382e8c88d4500d417e4e32d49f028aa5880125b36211Execute Meta Tra...191877492021-09-17 1:02:242 hrs 37 mins ago0xe6f7e0add15c665f5ac2b0eedfd2e8578ef2bf8aOUT 0x89aac1f5ccdd54dd8a09e5c858f19a665e4fa32b0 MATIC0.00570969222
0x54544881f94fb516e8227627e351302dbb056bc0f8c51977ea63fcb4c91f3ad4Execute Meta Tra...191875352021-09-17 0:53:282 hrs 46 mins ago0xe6f7e0add15c665f5ac2b0eedfd2e8578ef2bf8aOUT 0x89aac1f5ccdd54dd8a09e5c858f19a665e4fa32b0 MATIC0.01070835
0x6e04a25d7eb34ea9a41a65315f20844b03093c540ba007aa4d73fd079436f3d10x41706c4e191873362021-09-17 0:46:062 hrs 54 mins ago0xe6f7e0add15c665f5ac2b0eedfd2e8578ef2bf8aOUT 0x86c80a8aa58e0a4fa09a69624c31ab2a6cad56b80 MATIC0.00447081
0x8a92aff084a06b52fda839ed48b4e97f0a5b899dee798ea54aed389edef2790dExecute Meta Tra...191871432021-09-17 0:35:013 hrs 5 mins ago0xe6f7e0add15c665f5ac2b0eedfd2e8578ef2bf8aOUT 0x89aac1f5ccdd54dd8a09e5c858f19a665e4fa32b0 MATIC0.00428334
0xeaf9386d3f03e0526f799b8cff762d8d4f88de861f201501eac1015a2ff05485Execute Meta Tra...191869212021-09-17 0:26:043 hrs 14 mins ago0xe6f7e0add15c665f5ac2b0eedfd2e8578ef2bf8aOUT 0x89aac1f5ccdd54dd8a09e5c858f19a665e4fa32b0 MATIC0.00642537
0xdf63b31c85d10c8c91318ff42fc868655e2e824b51b2af954c5ddcf33bf809cdExecute Meta Tra...191867032021-09-17 0:17:123 hrs 23 mins ago0xe6f7e0add15c665f5ac2b0eedfd2e8578ef2bf8aOUT 0x89aac1f5ccdd54dd8a09e5c858f19a665e4fa32b0 MATIC0.00513972
0x21113c2de408a7243e5307acf7a0ae3a2a115cd97edf2bc8b0d6cdd4c9903c41Execute Meta Tra...191865302021-09-17 0:11:053 hrs 29 mins ago0xe6f7e0add15c665f5ac2b0eedfd2e8578ef2bf8aOUT 0x7adbced399630dd11a97f2e2dc206911167071ae0 MATIC0.00180022
0xecdf3e76e0197aa142f1c7c2be70739bc25b14eead555eb2e41f46b5b37567dfExecute Meta Tra...191860882021-09-16 23:52:593 hrs 47 mins ago0xe6f7e0add15c665f5ac2b0eedfd2e8578ef2bf8aOUT 0x89aac1f5ccdd54dd8a09e5c858f19a665e4fa32b0 MATIC0.01262214061
0xd8cb388b657063769324ec444952e1d8c9df2a9ddc03833169110f48c1b94498Execute Meta Tra...191859852021-09-16 23:46:033 hrs 54 mins ago0xe6f7e0add15c665f5ac2b0eedfd2e8578ef2bf8aOUT 0x89aac1f5ccdd54dd8a09e5c858f19a665e4fa32b0 MATIC0.00214179
[ Download CSV Export 
Parent Txn Hash Block From To Value
Loading

Contract Name:
0 MATIC

Compiler Version
0

Optimization Enabled:
0 MATIC

Other Settings:
-NA-
Block Transaction Gas Used Reward
Age Block Fee Address BC Fee Address Voting Power Jailed Incoming
Block Uncle Number Difficulty Gas Used Reward
Loading
Loading
Make sure to use the "Vote Down" button for any spammy posts, and the "Vote Up" for interesting conversations.